createdAt,value
2017-05-31T00:00:46.196Z,72.80
2017-05-31T00:03:13.181Z,73.00
2017-05-31T00:05:40.139Z,73.30
2017-05-31T00:08:07.105Z,73.50
2017-05-31T00:10:34.105Z,73.30
2017-05-31T00:13:01.409Z,73.10
2017-05-31T00:15:28.635Z,72.80
2017-05-31T00:17:55.985Z,72.70
2017-05-31T00:20:23.212Z,73.10
2017-05-31T00:22:50.378Z,73.40
2017-05-31T00:25:17.621Z,73.30
2017-05-31T00:27:44.888Z,73.50
2017-05-31T00:30:12.101Z,73.30
2017-05-31T00:32:39.695Z,73.30
2017-05-31T00:35:06.658Z,73.50
2017-05-31T00:37:33.596Z,73.00
2017-05-31T00:40:15.533Z,72.90
2017-05-31T00:42:42.488Z,73.20
2017-05-31T00:45:09.473Z,73.30
2017-05-31T00:47:36.419Z,73.40
2017-05-31T00:50:03.443Z,72.80
2017-05-31T00:52:30.377Z,73.20
2017-05-31T00:54:57.343Z,73.30
2017-05-31T00:57:24.290Z,73.30
2017-05-31T00:59:51.251Z,73.60
2017-05-31T01:02:18.190Z,73.40
2017-05-31T01:04:45.141Z,73.90
2017-05-31T01:07:12.088Z,73.60
2017-05-31T01:09:39.282Z,73.00
2017-05-31T01:12:06.256Z,73.70
2017-05-31T01:14:33.376Z,73.80
2017-05-31T01:17:00.341Z,73.70
2017-05-31T01:19:27.375Z,73.70
2017-05-31T01:21:54.329Z,73.80
2017-05-31T01:24:21.274Z,73.80
2017-05-31T01:26:48.222Z,73.10
2017-05-31T01:29:15.634Z,72.80
2017-05-31T01:31:42.613Z,72.40
2017-05-31T01:34:09.572Z,72.30
2017-05-31T01:36:36.556Z,72.50
2017-05-31T01:39:03.548Z,72.60
2017-05-31T01:41:30.540Z,72.00
2017-05-31T01:43:57.541Z,71.80
2017-05-31T01:46:24.499Z,72.30
2017-05-31T01:48:51.482Z,72.50
2017-05-31T01:51:18.454Z,72.60
2017-05-31T01:53:45.409Z,72.90
2017-05-31T01:56:19.389Z,72.40
2017-05-31T01:58:46.350Z,71.70
2017-05-31T02:01:13.288Z,72.00
2017-05-31T02:03:40.259Z,72.00
2017-05-31T02:06:07.200Z,72.90
2017-05-31T02:08:34.163Z,72.90
2017-05-31T02:13:44.683Z,73.60
2017-05-31T02:16:11.618Z,73.40
2017-05-31T02:18:38.590Z,72.90
2017-05-31T02:21:05.555Z,72.40
2017-05-31T02:23:32.493Z,72.70
2017-05-31T02:25:59.460Z,72.90
2017-05-31T02:28:26.398Z,73.00
2017-05-31T02:30:53.360Z,72.40
2017-05-31T02:33:20.303Z,73.00
2017-05-31T02:35:47.262Z,72.60
2017-05-31T02:38:14.206Z,72.60
2017-05-31T02:40:41.187Z,72.30
2017-05-31T02:43:08.134Z,71.90
2017-05-31T02:45:35.097Z,71.60
2017-05-31T02:48:02.048Z,71.90
2017-05-31T02:50:28.997Z,72.50
2017-05-31T02:52:55.970Z,71.70
2017-05-31T02:55:22.910Z,71.70
2017-05-31T02:57:49.874Z,72.00
2017-05-31T03:00:16.824Z,71.40
2017-05-31T03:02:43.793Z,71.60
2017-05-31T03:05:10.728Z,71.30
2017-05-31T03:07:37.752Z,71.40
2017-05-31T03:10:04.729Z,71.20
2017-05-31T03:12:31.746Z,71.40
2017-05-31T03:14:58.702Z,71.70
2017-05-31T03:17:25.697Z,71.80
2017-05-31T03:19:52.658Z,72.00
2017-05-31T03:22:19.615Z,72.10
2017-05-31T03:24:46.586Z,72.00
2017-05-31T03:27:13.543Z,72.30
2017-05-31T03:29:40.526Z,72.20
2017-05-31T03:32:07.474Z,71.60
2017-05-31T03:34:34.456Z,71.40
2017-05-31T03:37:01.400Z,72.50
2017-05-31T03:39:28.388Z,72.80
2017-05-31T03:41:55.334Z,72.60
2017-05-31T03:44:22.305Z,72.40
2017-05-31T03:46:49.261Z,72.70
2017-05-31T03:49:16.253Z,72.70
2017-05-31T03:51:43.256Z,73.50
2017-05-31T03:54:10.213Z,73.60
2017-05-31T03:56:37.196Z,73.50
2017-05-31T03:59:04.148Z,73.20
2017-05-31T04:01:31.142Z,73.80
2017-05-31T04:03:58.238Z,72.40
2017-05-31T04:06:25.231Z,72.30
2017-05-31T04:08:52.181Z,72.70
2017-05-31T04:11:19.194Z,72.30
2017-05-31T04:13:46.153Z,71.90
2017-05-31T04:16:13.131Z,71.80
2017-05-31T04:18:40.093Z,71.50
2017-05-31T04:21:07.078Z,72.30
2017-05-31T04:23:34.036Z,71.70
2017-05-31T04:26:01.009Z,72.40
2017-05-31T04:28:27.952Z,72.40
2017-05-31T04:30:54.965Z,72.70
2017-05-31T04:33:21.923Z,73.30
2017-05-31T04:35:48.916Z,73.90
2017-05-31T04:38:15.862Z,73.80
2017-05-31T04:40:42.834Z,74.00
2017-05-31T04:43:09.826Z,74.30
2017-05-31T04:45:36.776Z,74.20
2017-05-31T04:48:03.790Z,74.10
2017-05-31T04:50:30.751Z,74.50
2017-05-31T04:52:57.728Z,74.40
2017-05-31T04:55:24.687Z,74.50
2017-05-31T04:57:51.664Z,75.30
2017-05-31T05:00:18.624Z,74.80
2017-05-31T05:02:45.608Z,74.30
2017-05-31T05:05:12.561Z,74.10
2017-05-31T05:07:39.534Z,74.90
2017-05-31T05:10:06.532Z,74.80
2017-05-31T05:12:33.483Z,74.40
2017-05-31T05:15:00.462Z,74.10
2017-05-31T05:17:27.415Z,74.90
2017-05-31T05:19:54.386Z,75.10
2017-05-31T05:22:21.343Z,75.10
2017-05-31T05:24:48.316Z,75.10
2017-05-31T05:27:15.290Z,75.80
2017-05-31T05:29:42.677Z,74.50
2017-05-31T05:32:09.633Z,74.80
2017-05-31T05:34:36.619Z,74.30
2017-05-31T05:37:03.577Z,74.80
2017-05-31T05:39:30.553Z,75.10
2017-05-31T05:41:57.509Z,75.70
2017-05-31T05:44:24.591Z,74.90
2017-05-31T05:46:51.540Z,74.80
2017-05-31T05:49:18.513Z,74.40
2017-05-31T05:51:45.501Z,74.50
2017-05-31T05:54:12.466Z,74.50
2017-05-31T05:56:39.437Z,74.40
2017-05-31T05:59:06.427Z,74.30
2017-05-31T06:01:33.406Z,73.50
2017-05-31T06:04:00.373Z,74.70
2017-05-31T06:06:27.344Z,73.90
2017-05-31T06:08:54.309Z,72.40
2017-05-31T06:11:21.316Z,72.40
2017-05-31T06:13:48.259Z,72.20
2017-05-31T06:16:15.239Z,71.50
2017-05-31T06:18:42.173Z,71.30
2017-05-31T06:21:09.104Z,71.40
2017-05-31T06:23:36.078Z,72.10
2017-05-31T06:26:03.040Z,71.30
2017-05-31T06:28:30.014Z,70.50
2017-05-31T06:30:56.956Z,70.60
2017-05-31T06:33:23.918Z,71.10
2017-05-31T06:35:50.868Z,70.50
2017-05-31T06:38:17.839Z,70.30
2017-05-31T06:40:44.780Z,70.00
2017-05-31T06:43:11.713Z,68.50
2017-05-31T06:45:38.665Z,68.30
2017-05-31T06:48:05.600Z,68.20
2017-05-31T06:50:32.569Z,68.20
2017-05-31T06:52:59.512Z,68.10
2017-05-31T06:55:26.479Z,67.50
2017-05-31T06:57:53.421Z,68.20
2017-05-31T07:00:20.386Z,68.20
2017-05-31T07:02:47.331Z,67.80
2017-05-31T07:05:14.294Z,68.20
2017-05-31T07:07:41.354Z,67.80
2017-05-31T07:10:08.336Z,68.00
2017-05-31T07:12:35.310Z,68.10
2017-05-31T07:15:02.290Z,68.00
2017-05-31T07:17:29.282Z,67.60
2017-05-31T07:19:56.253Z,65.60
2017-05-31T07:22:23.359Z,65.70
2017-05-31T07:24:50.316Z,66.10
2017-05-31T07:27:17.306Z,65.90
2017-05-31T07:29:44.273Z,65.70
2017-05-31T07:32:11.271Z,66.80
2017-05-31T07:34:38.240Z,66.50
2017-05-31T07:37:05.226Z,67.10
2017-05-31T07:39:32.232Z,66.50
2017-05-31T07:41:59.181Z,66.90
2017-05-31T07:44:26.168Z,65.00
2017-05-31T07:46:53.114Z,64.20
2017-05-31T07:49:20.077Z,64.20
2017-05-31T07:51:47.156Z,64.40
2017-05-31T07:54:14.123Z,64.00
2017-05-31T07:56:41.061Z,63.30
2017-05-31T07:59:08.022Z,64.20
2017-05-31T08:01:34.965Z,63.80
2017-05-31T08:04:01.928Z,63.40
2017-05-31T08:06:28.871Z,64.00
2017-05-31T08:08:55.912Z,64.50
2017-05-31T08:11:22.891Z,64.30
2017-05-31T08:13:49.845Z,63.10
2017-05-31T08:16:16.821Z,63.20
2017-05-31T08:18:43.798Z,63.10
2017-05-31T08:21:10.780Z,64.00
2017-05-31T08:23:44.649Z,66.00
2017-05-31T08:26:11.642Z,62.70
2017-05-31T08:28:38.599Z,63.10
2017-05-31T08:31:05.588Z,63.40
2017-05-31T08:33:32.540Z,62.90
2017-05-31T08:35:59.517Z,62.80
2017-05-31T08:38:26.483Z,62.60
2017-05-31T08:40:53.461Z,61.30
2017-05-31T08:43:20.428Z,61.50
2017-05-31T08:45:47.418Z,61.60
2017-05-31T08:48:14.382Z,61.20
2017-05-31T08:50:41.339Z,60.70
2017-05-31T08:53:08.317Z,60.60
2017-05-31T08:55:35.272Z,60.90
2017-05-31T08:58:02.253Z,61.60
2017-05-31T09:00:29.213Z,60.40
2017-05-31T09:02:56.186Z,59.40
2017-05-31T09:05:23.141Z,59.90
2017-05-31T09:07:50.116Z,59.60
2017-05-31T09:10:17.098Z,60.50
2017-05-31T09:12:44.090Z,59.60
2017-05-31T09:15:11.058Z,61.20
2017-05-31T09:17:38.050Z,61.30
2017-05-31T09:20:05.012Z,60.30
2017-05-31T09:22:31.993Z,59.70
2017-05-31T09:24:58.962Z,59.50
2017-05-31T09:27:25.941Z,59.30
2017-05-31T09:29:52.893Z,60.40
2017-05-31T09:32:19.893Z,59.80
2017-05-31T09:34:47.081Z,61.40
2017-05-31T09:37:14.046Z,59.80
2017-05-31T09:39:41.023Z,59.60
2017-05-31T09:42:07.988Z,60.30
2017-05-31T09:44:34.970Z,58.80
2017-05-31T09:47:02.146Z,59.40
2017-05-31T09:49:29.129Z,59.30
2017-05-31T09:51:56.189Z,58.20
2017-05-31T09:54:23.317Z,58.80
2017-05-31T09:56:50.289Z,62.00
2017-05-31T09:59:17.278Z,59.50
2017-05-31T10:01:44.262Z,59.90
2017-05-31T10:04:11.241Z,59.30
2017-05-31T10:06:38.493Z,59.80
2017-05-31T10:09:05.525Z,56.60
2017-05-31T10:11:32.524Z,58.90
2017-05-31T10:13:59.517Z,57.30
2017-05-31T10:16:26.521Z,57.10
2017-05-31T10:18:53.509Z,58.30
2017-05-31T10:21:20.534Z,58.10
2017-05-31T10:23:47.493Z,58.90
2017-05-31T10:26:14.478Z,58.40
2017-05-31T10:28:41.443Z,58.90
2017-05-31T10:31:08.432Z,58.10
2017-05-31T10:33:35.400Z,59.80
2017-05-31T10:36:02.383Z,58.80
2017-05-31T10:38:29.348Z,58.90
2017-05-31T10:40:56.333Z,58.20
2017-05-31T10:43:23.318Z,56.70
2017-05-31T10:45:50.285Z,56.70
2017-05-31T10:48:17.273Z,57.00
2017-05-31T10:50:44.251Z,57.70
2017-05-31T10:53:11.236Z,58.20
2017-05-31T10:55:38.205Z,58.50
2017-05-31T10:58:05.186Z,57.40
2017-05-31T11:00:32.152Z,57.60
2017-05-31T11:02:59.153Z,57.60
2017-05-31T11:05:26.114Z,57.40
2017-05-31T11:07:53.074Z,56.90
2017-05-31T11:10:20.062Z,56.70
2017-05-31T11:12:47.015Z,58.40
2017-05-31T11:15:14.014Z,58.40
2017-05-31T11:17:40.981Z,57.60
2017-05-31T11:20:07.962Z,56.60
2017-05-31T11:22:34.921Z,57.30
2017-05-31T11:25:01.906Z,57.50
2017-05-31T11:27:28.878Z,56.30
2017-05-31T11:29:55.859Z,55.50
2017-05-31T11:32:22.826Z,56.90
2017-05-31T11:34:49.805Z,56.20
2017-05-31T11:37:16.832Z,57.60
2017-05-31T11:39:43.790Z,57.10
2017-05-31T11:42:10.755Z,55.80
2017-05-31T11:44:37.718Z,56.90
2017-05-31T11:47:04.705Z,57.30
2017-05-31T11:49:31.666Z,56.90
2017-05-31T11:51:58.653Z,57.20
2017-05-31T11:54:25.624Z,56.10
2017-05-31T11:56:52.609Z,53.10
2017-05-31T11:59:19.581Z,53.80
2017-05-31T12:01:46.564Z,54.00
2017-05-31T12:04:13.526Z,54.50
2017-05-31T12:06:40.500Z,54.20
2017-05-31T12:09:07.474Z,53.50
2017-05-31T12:11:34.465Z,53.50
2017-05-31T12:14:01.425Z,53.60
2017-05-31T12:16:28.389Z,54.40
2017-05-31T12:18:55.369Z,55.00
2017-05-31T12:21:22.337Z,54.80
2017-05-31T12:23:49.324Z,54.90
2017-05-31T12:26:16.285Z,55.30
2017-05-31T12:28:43.275Z,55.00
2017-05-31T12:31:10.237Z,54.50
2017-05-31T12:33:37.218Z,54.80
2017-05-31T12:36:04.174Z,53.30
2017-05-31T12:38:37.298Z,53.30
2017-05-31T12:41:04.264Z,53.30
2017-05-31T12:43:31.245Z,54.60
2017-05-31T12:45:58.202Z,54.30
2017-05-31T12:48:25.167Z,54.50
2017-05-31T12:50:52.154Z,54.30
2017-05-31T12:53:19.119Z,55.00
2017-05-31T12:55:46.103Z,56.20
2017-05-31T12:58:13.072Z,53.70
2017-05-31T13:00:40.297Z,54.70
2017-05-31T13:03:07.262Z,54.60
2017-05-31T13:05:34.248Z,54.90
2017-05-31T13:08:01.214Z,54.30
2017-05-31T13:10:28.197Z,54.40
2017-05-31T13:12:55.167Z,54.00
2017-05-31T13:15:22.153Z,53.00
2017-05-31T13:17:49.119Z,52.50
2017-05-31T13:20:16.101Z,52.10
2017-05-31T13:22:43.071Z,52.00
2017-05-31T13:25:10.037Z,52.00
2017-05-31T13:27:37.021Z,52.70
2017-05-31T13:30:03.986Z,53.70
2017-05-31T13:32:30.963Z,52.30
2017-05-31T13:34:57.939Z,52.70
2017-05-31T13:37:24.921Z,52.10
2017-05-31T13:39:51.881Z,52.90
2017-05-31T13:42:18.856Z,52.70
2017-05-31T13:44:45.824Z,52.40
2017-05-31T13:47:12.814Z,52.50
2017-05-31T13:49:39.783Z,52.90
2017-05-31T13:52:06.765Z,52.90
2017-05-31T13:54:33.766Z,52.30
2017-05-31T13:57:00.766Z,53.20
2017-05-31T13:59:27.732Z,53.50
2017-05-31T14:01:54.701Z,52.90
2017-05-31T14:04:21.691Z,52.70
2017-05-31T14:06:48.653Z,51.80
2017-05-31T14:09:15.638Z,51.50
2017-05-31T14:11:42.597Z,51.70
2017-05-31T14:14:09.589Z,52.40
2017-05-31T14:16:36.553Z,52.20
2017-05-31T14:19:03.542Z,52.50
2017-05-31T14:21:30.503Z,51.30
2017-05-31T14:23:57.496Z,52.00
2017-05-31T14:26:24.463Z,51.70
2017-05-31T14:28:51.456Z,51.60
2017-05-31T14:31:18.421Z,52.40
2017-05-31T14:33:45.381Z,52.80
2017-05-31T14:36:12.371Z,53.80
2017-05-31T14:38:39.343Z,53.70
2017-05-31T14:41:06.338Z,53.20
2017-05-31T14:43:33.298Z,51.20
2017-05-31T14:46:00.289Z,52.30
2017-05-31T14:48:27.265Z,51.90
2017-05-31T14:50:54.255Z,51.30
2017-05-31T14:53:21.242Z,50.90
2017-05-31T14:55:48.259Z,51.50
2017-05-31T14:58:15.215Z,51.50
2017-05-31T15:00:42.185Z,50.60
2017-05-31T15:03:09.173Z,50.40
2017-05-31T15:05:36.131Z,51.80
2017-05-31T15:08:03.111Z,52.10
2017-05-31T15:10:30.074Z,51.90
2017-05-31T15:12:57.203Z,51.90
2017-05-31T15:15:24.170Z,51.80
2017-05-31T15:17:51.182Z,51.30
2017-05-31T15:20:18.159Z,51.00
2017-05-31T15:22:45.900Z,51.30
2017-05-31T15:25:12.956Z,50.20
2017-05-31T15:27:39.923Z,50.70
2017-05-31T15:30:07.013Z,50.60
2017-05-31T15:32:33.992Z,51.80
2017-05-31T15:35:01.084Z,51.60
2017-05-31T15:37:28.062Z,50.60
2017-05-31T15:39:55.066Z,50.30
2017-05-31T15:42:22.038Z,51.00
2017-05-31T15:44:49.122Z,50.20
2017-05-31T15:47:16.085Z,50.20
2017-05-31T15:49:43.133Z,49.20
2017-05-31T15:52:10.122Z,49.60
2017-05-31T15:54:37.191Z,49.60
2017-05-31T15:57:04.272Z,48.10
2017-05-31T15:59:31.369Z,48.90
2017-05-31T16:01:58.392Z,48.30
2017-05-31T16:04:25.411Z,48.90
2017-05-31T16:06:52.519Z,48.70
2017-05-31T16:09:19.592Z,48.70
2017-05-31T16:11:46.592Z,49.30
2017-05-31T16:14:13.618Z,49.10
2017-05-31T16:16:40.572Z,49.50
2017-05-31T16:19:07.646Z,49.00
2017-05-31T16:21:34.601Z,47.60
2017-05-31T16:24:01.602Z,47.80
2017-05-31T16:26:28.582Z,48.60
2017-05-31T16:28:55.646Z,48.50
2017-05-31T16:31:22.687Z,48.10
2017-05-31T16:33:49.729Z,48.70
2017-05-31T16:36:16.693Z,48.90
2017-05-31T16:38:43.683Z,49.50
2017-05-31T16:41:10.645Z,49.40
2017-05-31T16:43:37.638Z,48.00
2017-05-31T16:46:04.600Z,48.80
2017-05-31T16:48:31.556Z,49.80
2017-05-31T16:50:58.549Z,49.70
2017-05-31T16:53:25.513Z,50.00
2017-05-31T16:55:52.502Z,49.40
2017-05-31T16:58:19.619Z,48.90
2017-05-31T17:00:46.606Z,49.50
2017-05-31T17:03:13.566Z,49.40
2017-05-31T17:05:40.550Z,49.00
2017-05-31T17:08:07.509Z,48.90
2017-05-31T17:10:34.492Z,48.10
2017-05-31T17:13:01.447Z,48.00
2017-05-31T17:15:28.443Z,48.00
2017-05-31T17:17:55.406Z,48.30
2017-05-31T17:20:22.389Z,48.40
2017-05-31T17:22:49.392Z,48.50
2017-05-31T17:25:16.356Z,48.70
2017-05-31T17:27:43.336Z,48.60
2017-05-31T17:30:10.310Z,48.20
2017-05-31T17:32:37.302Z,47.50
2017-05-31T17:35:04.259Z,47.80
2017-05-31T17:37:31.257Z,48.00
2017-05-31T17:39:58.243Z,48.60
2017-05-31T17:42:25.224Z,49.00
2017-05-31T17:44:52.181Z,48.80
2017-05-31T17:49:56.230Z,47.80
2017-05-31T17:52:23.193Z,47.50
2017-05-31T17:54:50.174Z,47.40
2017-05-31T17:57:17.135Z,47.30
2017-05-31T17:59:44.123Z,47.30
2017-05-31T18:02:11.145Z,48.20
2017-05-31T18:04:38.110Z,47.80
2017-05-31T18:07:05.073Z,47.90
2017-05-31T18:09:32.058Z,48.10
2017-05-31T18:11:59.021Z,48.20
2017-05-31T18:14:26.006Z,48.30
2017-05-31T18:16:52.973Z,48.30
2017-05-31T18:19:19.997Z,48.60
2017-05-31T18:21:46.951Z,48.50
2017-05-31T18:24:13.948Z,48.70
2017-05-31T18:26:40.913Z,48.80
2017-05-31T18:29:07.875Z,49.00
2017-05-31T18:31:34.857Z,48.90
2017-05-31T18:34:01.815Z,48.90
2017-05-31T18:36:28.790Z,48.70
2017-05-31T18:38:55.749Z,48.60
2017-05-31T18:41:22.742Z,49.20
2017-05-31T18:43:49.705Z,48.60
2017-05-31T18:46:16.689Z,48.30
2017-05-31T18:48:43.655Z,48.70
2017-05-31T18:51:10.640Z,48.40
2017-05-31T18:53:37.598Z,48.00
2017-05-31T18:56:04.585Z,48.70
2017-05-31T18:58:31.537Z,48.20
2017-05-31T19:00:58.524Z,48.70
2017-05-31T19:03:25.721Z,48.70
2017-05-31T19:05:52.722Z,48.90
2017-05-31T19:08:20.022Z,49.00
2017-05-31T19:10:47.046Z,49.30
2017-05-31T19:13:14.034Z,50.00
2017-05-31T19:15:40.986Z,50.00
2017-05-31T19:18:07.960Z,50.30
2017-05-31T19:20:34.922Z,50.10
2017-05-31T19:23:01.893Z,51.00
2017-05-31T19:25:28.877Z,49.80
2017-05-31T19:27:55.866Z,49.60
2017-05-31T19:30:22.967Z,49.60
2017-05-31T19:32:49.949Z,49.80
2017-05-31T19:35:16.921Z,50.00
2017-05-31T19:37:43.902Z,49.90
2017-05-31T19:40:10.867Z,50.40
2017-05-31T19:42:37.878Z,51.10
2017-05-31T19:45:04.879Z,51.60
2017-05-31T19:47:31.890Z,51.60
2017-05-31T19:49:58.842Z,51.90
2017-05-31T19:52:25.813Z,52.00
2017-05-31T19:54:52.814Z,52.30
2017-05-31T19:57:19.781Z,52.90
2017-05-31T19:59:46.956Z,53.10
2017-05-31T20:02:13.940Z,53.10
2017-05-31T20:04:40.899Z,53.00
2017-05-31T20:07:07.906Z,53.20
2017-05-31T20:09:34.914Z,53.40
2017-05-31T20:12:01.878Z,53.60
2017-05-31T20:14:28.898Z,53.60
2017-05-31T20:16:55.853Z,53.70
2017-05-31T20:19:22.893Z,53.80
2017-05-31T20:21:49.901Z,53.60
2017-05-31T20:24:16.861Z,53.70
2017-05-31T20:26:43.874Z,53.90
2017-05-31T20:29:10.822Z,54.10
2017-05-31T20:31:37.788Z,54.20
2017-05-31T20:34:04.789Z,54.40
2017-05-31T20:36:31.751Z,54.00
2017-05-31T20:38:58.762Z,53.90
2017-05-31T20:41:25.813Z,53.80
2017-05-31T20:43:52.797Z,54.10
2017-05-31T20:46:19.786Z,53.90
2017-05-31T20:48:46.771Z,53.90
2017-05-31T20:51:13.729Z,54.00
2017-05-31T20:53:40.840Z,54.00
2017-05-31T20:56:07.886Z,54.00
2017-05-31T20:58:34.872Z,54.10
2017-05-31T21:01:01.927Z,54.50
2017-05-31T21:03:28.969Z,54.70
2017-05-31T21:05:56.171Z,55.20
2017-05-31T21:08:23.235Z,55.90
2017-05-31T21:10:50.474Z,56.10
2017-05-31T21:13:17.442Z,56.20
2017-05-31T21:15:44.401Z,56.50
2017-05-31T21:18:11.337Z,56.30
2017-05-31T21:20:38.300Z,56.00
2017-05-31T21:23:05.243Z,55.90
2017-05-31T21:25:32.202Z,55.80
2017-05-31T21:27:59.157Z,55.70
2017-05-31T21:30:26.137Z,55.60
2017-05-31T21:32:53.099Z,55.90
2017-05-31T21:35:20.041Z,55.90
2017-05-31T21:37:47.013Z,55.80
2017-05-31T21:40:13.988Z,56.40
2017-05-31T21:42:41.034Z,56.40
2017-05-31T21:45:07.982Z,56.90
2017-05-31T21:47:35.283Z,57.50
2017-05-31T21:50:02.233Z,57.70
2017-05-31T21:52:29.195Z,57.90
2017-05-31T21:54:56.139Z,57.70
2017-05-31T21:57:23.097Z,58.10
2017-05-31T21:59:50.127Z,58.60
2017-05-31T22:02:17.100Z,58.60
2017-05-31T22:04:44.054Z,58.80
2017-05-31T22:07:11.039Z,58.60
2017-05-31T22:09:38.045Z,58.80
2017-05-31T22:12:05.009Z,58.70
2017-05-31T22:14:31.986Z,59.00
2017-05-31T22:16:58.951Z,58.90
2017-05-31T22:19:25.941Z,58.70
2017-05-31T22:21:52.900Z,58.80
2017-05-31T22:24:19.880Z,59.10
2017-05-31T22:26:46.830Z,59.20
2017-05-31T22:29:13.837Z,59.10
2017-05-31T22:31:41.114Z,59.10
2017-05-31T22:34:08.090Z,59.30
2017-05-31T22:36:35.047Z,58.90
2017-05-31T22:39:02.084Z,59.00
2017-05-31T22:41:29.042Z,58.90
2017-05-31T22:43:56.005Z,58.90
2017-05-31T22:46:22.984Z,58.90
2017-05-31T22:48:49.937Z,59.40
2017-05-31T22:51:16.918Z,59.50
2017-05-31T22:53:43.874Z,59.40
2017-05-31T22:56:10.853Z,59.30
2017-05-31T22:58:37.803Z,59.10
2017-05-31T23:01:04.787Z,59.50
2017-05-31T23:03:31.746Z,59.80
2017-05-31T23:05:58.729Z,59.50
2017-05-31T23:08:25.694Z,59.40
2017-05-31T23:10:52.667Z,59.40
2017-05-31T23:13:19.645Z,59.40
2017-05-31T23:15:46.613Z,59.80
2017-05-31T23:18:13.596Z,59.80
2017-05-31T23:20:40.586Z,59.80
2017-05-31T23:23:07.559Z,60.00
2017-05-31T23:28:08.270Z,60.40
2017-05-31T23:30:35.220Z,60.50
2017-05-31T23:33:02.209Z,60.70
2017-05-31T23:35:29.157Z,60.90
2017-05-31T23:37:56.143Z,61.80
2017-05-31T23:40:23.118Z,60.60
2017-05-31T23:42:50.063Z,60.80
2017-05-31T23:45:17.025Z,60.90
2017-05-31T23:47:43.984Z,60.70
2017-05-31T23:50:10.954Z,60.60
2017-05-31T23:52:37.905Z,60.40
2017-05-31T23:55:04.876Z,60.50
2017-05-31T23:57:31.825Z,60.20
2017-05-31T23:59:58.808Z,59.90
